createdAt,value
2022-10-18T00:02:13.845Z,66.85
2022-10-18T00:04:40.387Z,66.71
2022-10-18T00:07:07.038Z,66.58
2022-10-18T00:09:33.743Z,66.25
2022-10-18T00:12:00.908Z,65.92
2022-10-18T00:14:27.471Z,66.74
2022-10-18T00:16:53.997Z,67.97
2022-10-18T00:19:20.569Z,68.40
2022-10-18T00:21:51.321Z,68.18
2022-10-18T00:24:17.971Z,68.01
2022-10-18T00:26:44.678Z,67.12
2022-10-18T00:29:14.093Z,67.24
2022-10-18T00:31:43.530Z,67.75
2022-10-18T00:34:13.649Z,68.56
2022-10-18T00:36:40.791Z,67.14
2022-10-18T00:39:08.413Z,66.71
2022-10-18T00:41:37.936Z,66.90
2022-10-18T00:44:13.666Z,67.44
2022-10-18T00:46:42.934Z,67.15
2022-10-18T00:49:12.878Z,66.57
2022-10-18T00:51:45.239Z,66.72
2022-10-18T00:54:13.812Z,66.88
2022-10-18T00:56:40.391Z,66.73
2022-10-18T00:59:07.698Z,66.83
2022-10-18T01:01:34.375Z,66.81
2022-10-18T01:04:00.932Z,66.50
2022-10-18T01:06:28.315Z,66.23
2022-10-18T01:09:01.272Z,66.33
2022-10-18T01:11:43.551Z,66.29
2022-10-18T01:14:35.207Z,66.40
2022-10-18T01:17:18.306Z,66.03
2022-10-18T01:20:18.852Z,66.69
2022-10-18T01:22:49.781Z,66.98
2022-10-18T01:25:36.748Z,67.92
2022-10-18T01:28:29.619Z,67.20
2022-10-18T01:30:59.842Z,66.82
2022-10-18T01:33:52.270Z,67.70
2022-10-18T01:36:23.889Z,68.41
2022-10-18T01:38:54.546Z,68.41
2022-10-18T01:41:23.347Z,68.16
2022-10-18T01:43:53.259Z,68.21
2022-10-18T01:46:22.459Z,68.76
2022-10-18T01:48:49.255Z,69.33
2022-10-18T01:51:26.100Z,68.38
2022-10-18T01:53:52.619Z,69.03
2022-10-18T01:56:42.714Z,68.15
2022-10-18T01:59:34.034Z,68.12
2022-10-18T02:02:30.174Z,68.07
2022-10-18T02:05:21.057Z,68.07
2022-10-18T02:08:12.162Z,68.23
2022-10-18T02:10:48.100Z,67.89
2022-10-18T02:13:20.774Z,67.82
2022-10-18T02:15:49.586Z,67.19
2022-10-18T02:18:20.343Z,66.77
2022-10-18T02:20:47.922Z,66.62
2022-10-18T02:23:15.284Z,66.91
2022-10-18T02:25:41.785Z,67.01
2022-10-18T02:28:08.638Z,66.44
2022-10-18T02:30:45.485Z,66.75
2022-10-18T02:33:18.602Z,66.63
2022-10-18T02:35:47.600Z,66.38
2022-10-18T02:38:16.321Z,66.37
2022-10-18T02:40:43.153Z,67.51
2022-10-18T02:43:09.696Z,67.64
2022-10-18T02:45:36.667Z,67.03
2022-10-18T02:48:03.254Z,66.50
2022-10-18T02:50:29.696Z,66.17
2022-10-18T02:52:56.134Z,66.65
2022-10-18T02:55:22.650Z,68.29
2022-10-18T02:57:49.151Z,67.20
2022-10-18T03:00:15.950Z,67.34
2022-10-18T03:02:42.439Z,67.06
2022-10-18T03:05:09.039Z,66.99
2022-10-18T03:07:35.557Z,66.57
2022-10-18T03:10:02.313Z,66.31
2022-10-18T03:12:28.817Z,66.00
2022-10-18T03:14:55.326Z,66.22
2022-10-18T03:17:21.895Z,66.38
2022-10-18T03:19:48.350Z,66.33
2022-10-18T03:22:14.779Z,66.49
2022-10-18T03:24:41.286Z,66.17
2022-10-18T03:27:07.791Z,66.97
2022-10-18T03:29:34.267Z,66.86
2022-10-18T03:32:00.907Z,67.52
2022-10-18T03:34:27.378Z,68.53
2022-10-18T03:36:54.879Z,68.28
2022-10-18T03:39:21.378Z,67.27
2022-10-18T03:41:47.848Z,67.36
2022-10-18T03:44:14.397Z,67.00
2022-10-18T03:46:41.024Z,67.49
2022-10-18T03:49:07.546Z,67.60
2022-10-18T03:51:34.487Z,67.67
2022-10-18T03:54:01.059Z,67.12
2022-10-18T03:56:27.575Z,66.90
2022-10-18T03:58:54.043Z,68.32
2022-10-18T04:01:20.892Z,68.31
2022-10-18T04:03:47.429Z,68.75
2022-10-18T04:06:15.003Z,68.38
2022-10-18T04:08:41.478Z,69.16
2022-10-18T04:11:12.246Z,69.43
2022-10-18T04:13:38.996Z,68.90
2022-10-18T04:16:05.840Z,68.29
2022-10-18T04:18:32.362Z,67.84
2022-10-18T04:20:58.947Z,67.55
2022-10-18T04:23:25.449Z,66.90
2022-10-18T04:25:51.930Z,67.26
2022-10-18T04:28:18.738Z,67.07
2022-10-18T04:30:50.507Z,67.00
2022-10-18T04:33:17.630Z,66.35
2022-10-18T04:35:44.116Z,66.90
2022-10-18T04:38:10.622Z,67.04
2022-10-18T04:40:37.771Z,67.38
2022-10-18T04:43:04.272Z,67.05
2022-10-18T04:45:30.824Z,67.10
2022-10-18T04:47:57.321Z,66.59
2022-10-18T04:50:23.766Z,67.43
2022-10-18T04:55:16.944Z,68.87
2022-10-18T04:57:43.491Z,68.37
2022-10-18T05:00:10.311Z,67.92
2022-10-18T05:02:36.788Z,69.18
2022-10-18T05:05:03.824Z,68.07
2022-10-18T05:07:30.321Z,66.94
2022-10-18T05:09:56.804Z,66.91
2022-10-18T05:12:23.347Z,66.85
2022-10-18T05:14:49.815Z,66.59
2022-10-18T05:17:16.484Z,66.51
2022-10-18T05:19:43.101Z,66.41
2022-10-18T05:22:09.608Z,67.28
2022-10-18T05:24:36.038Z,67.67
2022-10-18T05:27:03.091Z,67.85
2022-10-18T05:29:29.619Z,67.92
2022-10-18T05:31:56.118Z,67.00
2022-10-18T05:34:22.629Z,67.66
2022-10-18T05:36:49.886Z,69.01
2022-10-18T05:39:16.429Z,70.21
2022-10-18T05:41:42.930Z,71.01
2022-10-18T05:44:09.579Z,71.26
2022-10-18T05:46:36.185Z,69.61
2022-10-18T05:49:02.779Z,69.06
2022-10-18T05:51:29.208Z,68.50
2022-10-18T05:53:55.913Z,68.02
2022-10-18T05:56:22.478Z,67.84
2022-10-18T05:58:53.160Z,68.04
2022-10-18T06:01:19.927Z,68.84
2022-10-18T06:03:46.621Z,70.15
2022-10-18T06:06:13.831Z,69.13
2022-10-18T06:08:40.985Z,68.27
2022-10-18T06:11:09.370Z,67.75
2022-10-18T06:13:43.081Z,67.78
2022-10-18T06:16:10.156Z,67.23
2022-10-18T06:18:37.031Z,67.01
2022-10-18T06:21:03.734Z,67.06
2022-10-18T06:23:30.288Z,67.88
2022-10-18T06:26:01.203Z,67.46
2022-10-18T06:28:28.649Z,68.20
2022-10-18T06:30:56.359Z,68.48
2022-10-18T06:33:23.228Z,68.03
2022-10-18T06:36:00.434Z,68.33
2022-10-18T06:38:27.762Z,67.88
2022-10-18T06:40:55.676Z,67.42
2022-10-18T06:43:22.371Z,67.02
2022-10-18T06:45:49.484Z,67.80
2022-10-18T06:48:17.073Z,67.39
2022-10-18T06:50:54.015Z,68.04
2022-10-18T06:53:20.598Z,68.26
2022-10-18T06:55:47.106Z,67.65
2022-10-18T06:58:13.740Z,68.01
2022-10-18T07:00:40.327Z,69.16
2022-10-18T07:03:06.968Z,69.50
2022-10-18T07:08:05.163Z,68.34
2022-10-18T07:10:31.646Z,68.16
2022-10-18T07:13:13.528Z,67.56
2022-10-18T07:15:44.707Z,68.34
2022-10-18T07:18:11.175Z,68.02
2022-10-18T07:20:38.127Z,68.88
2022-10-18T07:23:07.097Z,68.33
2022-10-18T07:25:33.582Z,69.51
2022-10-18T07:28:00.535Z,69.57
2022-10-18T07:30:27.087Z,69.28
2022-10-18T07:32:53.849Z,70.46
2022-10-18T07:35:20.478Z,71.47
2022-10-18T07:37:47.020Z,70.19
2022-10-18T07:40:13.601Z,71.12
2022-10-18T07:42:40.054Z,70.14
2022-10-18T07:45:07.000Z,70.83
2022-10-18T07:47:35.221Z,71.71
2022-10-18T07:50:01.942Z,71.97
2022-10-18T07:52:28.388Z,71.07
2022-10-18T07:54:54.993Z,69.40
2022-10-18T07:57:21.538Z,69.80
2022-10-18T07:59:48.287Z,70.02
2022-10-18T08:02:14.839Z,69.32
2022-10-18T08:04:41.669Z,68.45
2022-10-18T08:07:08.145Z,67.50
2022-10-18T08:09:34.685Z,66.94
2022-10-18T08:12:01.236Z,68.20
2022-10-18T08:14:27.795Z,68.29
2022-10-18T08:16:55.628Z,67.08
2022-10-18T08:19:22.387Z,67.00
2022-10-18T08:21:49.134Z,68.15
2022-10-18T08:24:15.664Z,68.01
2022-10-18T08:26:42.164Z,67.55
2022-10-18T08:29:22.456Z,67.59
2022-10-18T08:31:50.921Z,67.58
2022-10-18T08:34:19.859Z,67.39
2022-10-18T08:36:46.592Z,68.35
2022-10-18T08:39:13.175Z,67.07
2022-10-18T08:41:51.825Z,67.52
2022-10-18T08:44:27.695Z,69.06
2022-10-18T08:47:14.812Z,66.94
2022-10-18T08:49:52.801Z,66.42
2022-10-18T08:52:59.363Z,67.13
2022-10-18T08:55:42.721Z,66.79
2022-10-18T08:58:30.806Z,65.80
2022-10-18T09:01:10.371Z,66.93
2022-10-18T09:03:55.396Z,65.83
2022-10-18T09:06:36.019Z,66.06
2022-10-18T09:09:08.685Z,66.40
2022-10-18T09:11:38.226Z,66.35
2022-10-18T09:14:17.538Z,66.49
2022-10-18T09:16:55.751Z,66.22
2022-10-18T09:19:28.295Z,67.34
2022-10-18T09:21:58.796Z,66.73
2022-10-18T09:24:39.295Z,67.33
2022-10-18T09:27:14.081Z,67.79
2022-10-18T09:29:46.644Z,66.88
2022-10-18T09:32:34.890Z,67.91
2022-10-18T09:35:14.330Z,65.67
2022-10-18T09:37:41.734Z,65.54
2022-10-18T09:40:29.333Z,64.97
2022-10-18T09:43:01.513Z,65.25
2022-10-18T09:45:31.443Z,65.65
2022-10-18T09:48:11.553Z,67.51
2022-10-18T09:50:57.803Z,68.08
2022-10-18T09:53:37.405Z,66.29
2022-10-18T09:56:09.442Z,64.96
2022-10-18T09:58:44.225Z,64.98
2022-10-18T10:01:13.218Z,63.88
2022-10-18T10:03:40.002Z,63.43
2022-10-18T10:06:12.626Z,62.55
2022-10-18T10:08:43.981Z,61.74
2022-10-18T10:11:47.036Z,60.14
2022-10-18T10:16:44.586Z,58.62
2022-10-18T10:19:19.339Z,58.20
2022-10-18T10:21:47.830Z,58.42
2022-10-18T10:24:43.090Z,56.73
2022-10-18T10:27:31.274Z,57.20
2022-10-18T10:30:28.091Z,57.71
2022-10-18T10:32:56.396Z,58.98
2022-10-18T10:38:26.690Z,58.10
2022-10-18T10:40:53.481Z,60.25
2022-10-18T10:43:40.128Z,59.93
2022-10-18T10:46:20.899Z,63.24
2022-10-18T10:49:00.353Z,62.88
2022-10-18T10:51:36.436Z,61.62
2022-10-18T10:54:21.497Z,61.59
2022-10-18T10:57:01.476Z,60.65
2022-10-18T10:59:32.523Z,60.28
2022-10-18T11:02:14.619Z,58.33
2022-10-18T11:04:42.175Z,58.63
2022-10-18T11:07:35.697Z,58.22
2022-10-18T11:10:11.322Z,60.96
2022-10-18T11:12:46.003Z,59.62
2022-10-18T11:15:28.901Z,60.49
2022-10-18T11:18:17.470Z,62.27
2022-10-18T11:20:53.712Z,62.75
2022-10-18T11:23:20.767Z,64.26
2022-10-18T11:25:59.609Z,62.32
2022-10-18T11:28:42.072Z,65.58
2022-10-18T11:31:31.342Z,66.78
2022-10-18T11:34:19.627Z,66.08
2022-10-18T11:37:15.604Z,65.46
2022-10-18T11:40:00.085Z,65.11
2022-10-18T11:42:37.888Z,62.45
2022-10-18T11:45:22.820Z,62.32
2022-10-18T11:47:56.369Z,59.90
2022-10-18T11:50:27.840Z,59.17
2022-10-18T11:53:15.996Z,53.72
2022-10-18T11:55:45.541Z,42.42
2022-10-18T11:58:42.807Z,34.88
2022-10-18T12:01:23.447Z,35.09
2022-10-18T12:04:01.888Z,29.96
2022-10-18T12:06:34.020Z,26.67
2022-10-18T12:09:40.318Z,26.68
2022-10-18T12:12:20.265Z,29.63
2022-10-18T12:15:07.003Z,32.68
2022-10-18T12:17:43.894Z,37.40
2022-10-18T12:20:48.967Z,38.66
2022-10-18T12:23:20.115Z,38.13
2022-10-18T12:25:51.260Z,42.39
2022-10-18T12:28:51.807Z,46.74
2022-10-18T12:31:39.809Z,48.05
2022-10-18T12:34:23.714Z,47.63
2022-10-18T12:37:24.731Z,47.70
2022-10-18T12:40:18.859Z,45.47
2022-10-18T12:42:49.521Z,46.94
2022-10-18T12:45:26.534Z,47.21
2022-10-18T12:47:53.686Z,49.03
2022-10-18T12:50:28.149Z,46.36
2022-10-18T12:53:03.787Z,47.30
2022-10-18T12:55:33.813Z,48.75
2022-10-18T12:58:02.653Z,47.22
2022-10-18T13:00:32.115Z,47.29
2022-10-18T13:03:14.263Z,47.03
2022-10-18T13:06:02.894Z,45.52
2022-10-18T13:08:38.146Z,44.07
2022-10-18T13:11:07.775Z,43.84
2022-10-18T13:14:11.578Z,44.35
2022-10-18T13:16:56.376Z,44.20
2022-10-18T13:19:38.519Z,45.87
2022-10-18T13:22:31.257Z,46.21
2022-10-18T13:25:28.908Z,44.49
2022-10-18T13:28:20.788Z,44.59
2022-10-18T13:30:56.783Z,43.82
2022-10-18T13:33:36.610Z,42.23
2022-10-18T13:36:22.817Z,42.36
2022-10-18T13:38:57.611Z,40.77
2022-10-18T13:41:28.323Z,40.67
2022-10-18T13:44:02.712Z,40.94
2022-10-18T13:46:36.432Z,40.65
2022-10-18T13:49:30.493Z,41.80
2022-10-18T13:52:24.457Z,41.26
2022-10-18T13:55:06.173Z,41.47
2022-10-18T13:57:55.982Z,42.01
2022-10-18T14:00:28.664Z,41.17
2022-10-18T14:03:37.531Z,40.56
2022-10-18T14:06:18.967Z,40.57
2022-10-18T14:08:57.686Z,40.65
2022-10-18T14:11:41.130Z,39.39
2022-10-18T14:14:23.222Z,40.88
2022-10-18T14:16:52.631Z,38.70
2022-10-18T14:19:25.263Z,37.33
2022-10-18T14:22:18.657Z,37.21
2022-10-18T14:24:48.641Z,37.25
2022-10-18T14:27:18.304Z,36.52
2022-10-18T14:29:44.871Z,37.37
2022-10-18T14:32:23.221Z,37.33
2022-10-18T14:34:50.360Z,37.73
2022-10-18T14:37:34.444Z,38.11
2022-10-18T14:40:01.838Z,38.14
2022-10-18T14:42:28.918Z,38.05
2022-10-18T14:44:56.466Z,37.76
2022-10-18T14:47:28.234Z,38.43
2022-10-18T14:49:57.590Z,37.78
2022-10-18T14:52:29.528Z,38.36
2022-10-18T14:54:59.473Z,38.40
2022-10-18T14:57:34.919Z,38.71
2022-10-18T15:00:05.097Z,39.43
2022-10-18T15:02:33.647Z,39.85
2022-10-18T15:05:07.853Z,39.69
2022-10-18T15:07:34.951Z,40.08
2022-10-18T15:10:04.013Z,39.43
2022-10-18T15:12:36.903Z,39.14
2022-10-18T15:15:35.154Z,40.54
2022-10-18T15:18:02.011Z,39.73
2022-10-18T15:20:31.949Z,40.02
2022-10-18T15:23:26.590Z,40.58
2022-10-18T15:26:00.427Z,41.83
2022-10-18T15:28:33.642Z,41.26
2022-10-18T15:31:01.879Z,40.71
2022-10-18T15:33:34.270Z,41.25
2022-10-18T15:36:12.138Z,41.46
2022-10-18T15:38:38.998Z,41.79
2022-10-18T15:41:52.770Z,42.16
2022-10-18T15:44:22.170Z,42.79
2022-10-18T15:46:50.002Z,43.35
2022-10-18T15:49:45.370Z,44.28
2022-10-18T15:52:42.858Z,44.50
2022-10-18T15:55:31.256Z,45.17
2022-10-18T15:58:12.730Z,45.40
2022-10-18T16:00:39.353Z,45.27
2022-10-18T16:03:08.944Z,46.12
2022-10-18T16:05:36.897Z,45.77
2022-10-18T16:08:03.628Z,45.54
2022-10-18T16:10:30.255Z,46.75
2022-10-18T16:12:56.878Z,47.04
2022-10-18T16:15:23.565Z,47.51
2022-10-18T16:17:51.455Z,47.78
2022-10-18T16:20:23.328Z,47.63
2022-10-18T16:22:49.888Z,48.16
2022-10-18T16:25:16.611Z,48.68
2022-10-18T16:27:43.379Z,48.97
2022-10-18T16:30:16.906Z,48.87
2022-10-18T16:32:43.865Z,49.28
2022-10-18T16:35:12.142Z,49.71
2022-10-18T16:37:39.700Z,50.08
2022-10-18T16:40:23.994Z,50.59
2022-10-18T16:42:56.194Z,50.61
2022-10-18T16:45:22.794Z,51.03
2022-10-18T16:47:49.341Z,51.66
2022-10-18T16:50:19.316Z,51.61
2022-10-18T16:52:46.037Z,52.09
2022-10-18T16:55:21.282Z,52.24
2022-10-18T16:57:49.111Z,52.37
2022-10-18T17:00:21.315Z,52.72
2022-10-18T17:02:48.722Z,53.40
2022-10-18T17:05:17.130Z,53.06
2022-10-18T17:07:45.145Z,53.59
2022-10-18T17:10:17.334Z,53.32
2022-10-18T17:12:43.845Z,54.17
2022-10-18T17:15:11.017Z,53.77
2022-10-18T17:17:37.778Z,54.75
2022-10-18T17:20:06.083Z,53.88
2022-10-18T17:22:32.750Z,53.80
2022-10-18T17:24:59.259Z,53.63
2022-10-18T17:27:26.217Z,54.39
2022-10-18T17:29:52.952Z,54.57
2022-10-18T17:32:19.638Z,54.83
2022-10-18T17:34:46.169Z,54.53
2022-10-18T17:37:13.573Z,54.61
2022-10-18T17:39:40.302Z,54.30
2022-10-18T17:42:07.298Z,54.85
2022-10-18T17:44:33.784Z,53.92
2022-10-18T17:47:02.733Z,53.79
2022-10-18T17:49:29.276Z,54.48
2022-10-18T17:51:55.776Z,54.61
2022-10-18T17:54:22.338Z,54.44
2022-10-18T17:56:53.903Z,55.07
2022-10-18T17:59:21.127Z,55.11
2022-10-18T18:04:19.403Z,54.86
2022-10-18T18:06:45.981Z,54.96
2022-10-18T18:09:15.215Z,55.13
2022-10-18T18:11:44.296Z,54.74
2022-10-18T18:14:12.120Z,54.89
2022-10-18T18:16:41.200Z,54.58
2022-10-18T18:19:09.838Z,54.12
2022-10-18T18:21:40.264Z,54.81
2022-10-18T18:24:07.177Z,54.70
2022-10-18T18:26:35.043Z,54.47
2022-10-18T18:31:38.865Z,54.27
2022-10-18T18:34:07.258Z,54.43
2022-10-18T18:36:33.978Z,54.61
2022-10-18T18:39:00.717Z,54.76
2022-10-18T18:41:28.372Z,55.00
2022-10-18T18:43:57.821Z,55.09
2022-10-18T18:46:25.694Z,55.29
2022-10-18T18:48:52.352Z,55.26
2022-10-18T18:51:20.774Z,55.29
2022-10-18T18:53:48.587Z,55.34
2022-10-18T18:56:17.844Z,55.01
2022-10-18T18:58:45.415Z,55.07
2022-10-18T19:01:17.934Z,55.25
2022-10-18T19:03:49.111Z,55.74
2022-10-18T19:06:21.295Z,56.66
2022-10-18T19:08:48.584Z,56.74
2022-10-18T19:11:17.357Z,57.31
2022-10-18T19:13:45.285Z,56.34
2022-10-18T19:16:27.063Z,56.50
2022-10-18T19:19:07.746Z,55.97
2022-10-18T19:21:41.035Z,56.34
2022-10-18T19:24:07.692Z,56.27
2022-10-18T19:26:34.355Z,56.48
2022-10-18T19:29:07.466Z,56.39
2022-10-18T19:31:34.922Z,56.84
2022-10-18T19:34:11.867Z,57.14
2022-10-18T19:36:39.847Z,56.78
2022-10-18T19:39:09.644Z,56.91
2022-10-18T19:41:36.255Z,56.56
2022-10-18T19:44:03.327Z,56.77
2022-10-18T19:46:29.794Z,56.74
2022-10-18T19:48:56.631Z,57.80
2022-10-18T19:51:27.916Z,57.38
2022-10-18T19:53:56.715Z,57.62
2022-10-18T19:56:24.688Z,56.97
2022-10-18T19:58:51.830Z,56.99
2022-10-18T20:01:21.111Z,57.03
2022-10-18T20:03:50.451Z,56.44
2022-10-18T20:06:20.354Z,57.64
2022-10-18T20:08:47.856Z,57.50
2022-10-18T20:11:18.027Z,57.68
2022-10-18T20:13:44.782Z,57.40
2022-10-18T20:16:12.935Z,57.08
2022-10-18T20:18:39.474Z,58.13
2022-10-18T20:21:07.484Z,57.45
2022-10-18T20:23:38.511Z,57.02
2022-10-18T20:26:07.683Z,56.78
2022-10-18T20:28:34.990Z,56.97
2022-10-18T20:31:01.528Z,56.85
2022-10-18T20:33:29.091Z,56.91
2022-10-18T20:35:55.696Z,56.80
2022-10-18T20:38:22.320Z,56.51
2022-10-18T20:40:48.787Z,56.44
2022-10-18T20:43:15.298Z,56.20
2022-10-18T20:45:42.533Z,56.49
2022-10-18T20:48:11.883Z,56.44
2022-10-18T20:50:42.045Z,56.44
2022-10-18T20:53:08.603Z,56.23
2022-10-18T20:55:39.468Z,56.52
2022-10-18T20:58:06.824Z,56.67
2022-10-18T21:00:34.866Z,56.20
2022-10-18T21:03:01.497Z,55.76
2022-10-18T21:05:31.912Z,55.99
2022-10-18T21:07:58.962Z,55.80
2022-10-18T21:10:26.168Z,55.74
2022-10-18T21:12:53.079Z,55.67
2022-10-18T21:15:19.641Z,55.33
2022-10-18T21:17:52.038Z,55.03
2022-10-18T21:20:18.804Z,55.42
2022-10-18T21:22:45.465Z,56.92
2022-10-18T21:25:12.010Z,56.71
2022-10-18T21:27:38.587Z,57.17
2022-10-18T21:30:05.368Z,57.21
2022-10-18T21:32:32.218Z,57.18
2022-10-18T21:34:58.939Z,56.81
2022-10-18T21:37:25.434Z,56.79
2022-10-18T21:39:52.327Z,56.60
2022-10-18T21:42:18.802Z,56.72
2022-10-18T21:44:45.521Z,56.52
2022-10-18T21:47:12.007Z,56.26
2022-10-18T21:49:38.448Z,55.99
2022-10-18T21:52:05.371Z,55.80
2022-10-18T21:54:31.998Z,56.16
2022-10-18T21:56:58.438Z,56.45
2022-10-18T21:59:26.152Z,55.62
2022-10-18T22:01:52.726Z,55.70
2022-10-18T22:04:23.960Z,57.16
2022-10-18T22:06:53.797Z,56.25
2022-10-18T22:09:21.366Z,56.66
2022-10-18T22:11:52.358Z,56.32
2022-10-18T22:14:19.561Z,56.48
2022-10-18T22:16:46.438Z,56.42
2022-10-18T22:19:12.957Z,56.48
2022-10-18T22:21:39.517Z,56.20
2022-10-18T22:24:07.663Z,56.00
2022-10-18T22:26:40.495Z,56.13
2022-10-18T22:29:15.327Z,56.18
2022-10-18T22:31:48.638Z,56.03
2022-10-18T22:34:18.292Z,55.83
2022-10-18T22:36:45.210Z,56.02
2022-10-18T22:39:14.255Z,55.52
2022-10-18T22:41:41.692Z,55.34
2022-10-18T22:44:08.371Z,55.42
2022-10-18T22:46:35.246Z,55.04
2022-10-18T22:49:01.763Z,54.94
2022-10-18T22:51:28.284Z,55.01
2022-10-18T22:53:54.833Z,55.26
2022-10-18T22:56:22.516Z,55.38
2022-10-18T22:58:50.863Z,57.09
2022-10-18T23:01:19.682Z,56.50
2022-10-18T23:03:46.263Z,56.14
2022-10-18T23:06:28.816Z,56.08
2022-10-18T23:08:57.717Z,56.01
2022-10-18T23:11:25.883Z,55.97
2022-10-18T23:13:54.227Z,55.69
2022-10-18T23:16:20.838Z,55.21
2022-10-18T23:18:53.110Z,55.91
2022-10-18T23:21:20.679Z,56.22
2022-10-18T23:23:52.355Z,56.15
2022-10-18T23:26:24.699Z,56.74
2022-10-18T23:28:53.352Z,56.26
2022-10-18T23:31:23.019Z,55.79
2022-10-18T23:33:51.818Z,55.91
2022-10-18T23:36:18.737Z,55.87
2022-10-18T23:38:45.376Z,55.53
2022-10-18T23:41:13.628Z,55.80
2022-10-18T23:43:40.522Z,55.69
2022-10-18T23:46:07.475Z,55.41
2022-10-18T23:48:34.315Z,55.62
2022-10-18T23:51:01.671Z,55.48
2022-10-18T23:53:28.580Z,55.56
2022-10-18T23:56:00.780Z,55.38
2022-10-18T23:58:28.863Z,55.63
